sensor_id;sensor_type;location;lat;lon;timestamp;P1;durP1;ratioP1;P2;durP2;ratioP2
29568;SDS011;16501;51.462;14.346;2024-01-15T00:02:05;16.23;;;7.97;;
29568;SDS011;16501;51.462;14.346;2024-01-15T00:04:31;15.73;;;7.82;;
29568;SDS011;16501;51.462;14.346;2024-01-15T00:07:00;21.48;;;9.10;;
29568;SDS011;16501;51.462;14.346;2024-01-15T00:09:26;15.55;;;8.15;;
29568;SDS011;16501;51.462;14.346;2024-01-15T00:11:52;15.30;;;8.43;;
29568;SDS011;16501;51.462;14.346;2024-01-15T00:14:17;19.80;;;9.07;;
29568;SDS011;16501;51.462;14.346;2024-01-15T00:16:45;13.07;;;7.75;;
29568;SDS011;16501;51.462;14.346;2024-01-15T00:19:10;19.90;;;9.27;;
29568;SDS011;16501;51.462;14.346;2024-01-15T00:21:35;17.25;;;8.18;;
29568;SDS011;16501;51.462;14.346;2024-01-15T00:24:00;19.25;;;9.60;;
29568;SDS011;16501;51.462;14.346;2024-01-15T00:26:26;17.65;;;9.13;;
29568;SDS011;16501;51.462;14.346;2024-01-15T00:28:51;16.80;;;8.98;;
29568;SDS011;16501;51.462;14.346;2024-01-15T00:31:16;16.05;;;8.40;;
29568;SDS011;16501;51.462;14.346;2024-01-15T00:33:42;15.50;;;8.13;;
29568;SDS011;16501;51.462;14.346;2024-01-15T00:36:07;15.63;;;7.88;;
29568;SDS011;16501;51.462;14.346;2024-01-15T00:38:33;14.23;;;8.10;;
29568;SDS011;16501;51.462;14.346;2024-01-15T00:40:58;17.52;;;9.75;;
29568;SDS011;16501;51.462;14.346;2024-01-15T00:43:23;14.75;;;8.15;;
29568;SDS011;16501;51.462;14.346;2024-01-15T00:45:48;18.27;;;8.73;;
29568;SDS011;16501;51.462;14.346;2024-01-15T00:48:14;17.30;;;8.73;;
29568;SDS011;16501;51.462;14.346;2024-01-15T00:50:39;18.75;;;8.82;;
29568;SDS011;16501;51.462;14.346;2024-01-15T00:53:04;17.00;;;7.88;;
29568;SDS011;16501;51.462;14.346;2024-01-15T00:55:29;15.75;;;8.32;;
29568;SDS011;16501;51.462;14.346;2024-01-15T00:57:55;16.80;;;7.90;;
29568;SDS011;16501;51.462;14.346;2024-01-15T01:00:20;18.33;;;8.98;;
29568;SDS011;16501;51.462;14.346;2024-01-15T01:02:45;17.92;;;7.90;;
29568;SDS011;16501;51.462;14.346;2024-01-15T01:05:11;15.05;;;7.80;;
29568;SDS011;16501;51.462;14.346;2024-01-15T01:07:36;19.10;;;8.45;;
29568;SDS011;16501;51.462;14.346;2024-01-15T01:10:01;18.85;;;8.18;;
29568;SDS011;16501;51.462;14.346;2024-01-15T01:12:26;15.60;;;7.80;;
29568;SDS011;16501;51.462;14.346;2024-01-15T01:14:55;20.52;;;8.70;;
29568;SDS011;16501;51.462;14.346;2024-01-15T01:17:20;15.38;;;7.70;;
29568;SDS011;16501;51.462;14.346;2024-01-15T01:19:45;17.30;;;8.52;;
29568;SDS011;16501;51.462;14.346;2024-01-15T01:22:10;15.95;;;7.03;;
29568;SDS011;16501;51.462;14.346;2024-01-15T01:24:36;16.48;;;7.22;;
29568;SDS011;16501;51.462;14.346;2024-01-15T01:27:01;13.55;;;6.65;;
29568;SDS011;16501;51.462;14.346;2024-01-15T01:29:26;14.85;;;7.55;;
29568;SDS011;16501;51.462;14.346;2024-01-15T01:31:51;12.90;;;6.97;;
29568;SDS011;16501;51.462;14.346;2024-01-15T01:34:17;15.95;;;7.32;;
29568;SDS011;16501;51.462;14.346;2024-01-15T01:36:42;12.93;;;6.78;;
29568;SDS011;16501;51.462;14.346;2024-01-15T01:39:08;15.65;;;7.20;;
29568;SDS011;16501;51.462;14.346;2024-01-15T01:41:34;13.13;;;6.80;;
29568;SDS011;16501;51.462;14.346;2024-01-15T01:43:59;12.98;;;7.20;;
29568;SDS011;16501;51.462;14.346;2024-01-15T01:46:24;13.43;;;6.53;;
29568;SDS011;16501;51.462;14.346;2024-01-15T01:48:52;13.95;;;7.65;;
29568;SDS011;16501;51.462;14.346;2024-01-15T01:51:18;13.68;;;6.60;;
29568;SDS011;16501;51.462;14.346;2024-01-15T01:53:44;15.45;;;7.05;;
29568;SDS011;16501;51.462;14.346;2024-01-15T01:56:10;13.20;;;6.25;;
29568;SDS011;16501;51.462;14.346;2024-01-15T01:58:37;11.38;;;6.57;;
29568;SDS011;16501;51.462;14.346;2024-01-15T02:01:03;14.65;;;7.78;;
29568;SDS011;16501;51.462;14.346;2024-01-15T02:03:29;14.73;;;7.43;;
29568;SDS011;16501;51.462;14.346;2024-01-15T02:05:56;13.55;;;7.20;;
29568;SDS011;16501;51.462;14.346;2024-01-15T02:08:21;12.82;;;7.07;;
29568;SDS011;16501;51.462;14.346;2024-01-15T02:10:47;16.65;;;7.88;;
29568;SDS011;16501;51.462;14.346;2024-01-15T02:13:12;10.98;;;6.30;;
29568;SDS011;16501;51.462;14.346;2024-01-15T02:15:38;15.82;;;8.25;;
29568;SDS011;16501;51.462;14.346;2024-01-15T02:18:04;15.93;;;7.45;;
29568;SDS011;16501;51.462;14.346;2024-01-15T02:20:31;13.63;;;7.50;;
29568;SDS011;16501;51.462;14.346;2024-01-15T02:25:32;14.30;;;7.55;;
29568;SDS011;16501;51.462;14.346;2024-01-15T02:27:57;15.98;;;7.10;;
29568;SDS011;16501;51.462;14.346;2024-01-15T02:30:23;13.55;;;7.22;;
29568;SDS011;16501;51.462;14.346;2024-01-15T02:32:50;17.45;;;7.88;;
29568;SDS011;16501;51.462;14.346;2024-01-15T02:35:15;14.18;;;7.40;;
29568;SDS011;16501;51.462;14.346;2024-01-15T02:37:40;13.38;;;7.82;;
29568;SDS011;16501;51.462;14.346;2024-01-15T02:40:06;16.38;;;7.07;;
29568;SDS011;16501;51.462;14.346;2024-01-15T02:42:32;15.50;;;8.25;;
29568;SDS011;16501;51.462;14.346;2024-01-15T02:44:57;14.80;;;7.22;;
29568;SDS011;16501;51.462;14.346;2024-01-15T02:47:22;16.98;;;7.80;;
29568;SDS011;16501;51.462;14.346;2024-01-15T02:49:47;13.57;;;6.82;;
29568;SDS011;16501;51.462;14.346;2024-01-15T02:52:13;13.10;;;7.05;;
29568;SDS011;16501;51.462;14.346;2024-01-15T02:54:38;13.63;;;6.68;;
29568;SDS011;16501;51.462;14.346;2024-01-15T02:57:03;15.15;;;7.22;;
29568;SDS011;16501;51.462;14.346;2024-01-15T02:59:29;16.90;;;7.82;;
29568;SDS011;16501;51.462;14.346;2024-01-15T03:01:54;15.70;;;8.02;;
29568;SDS011;16501;51.462;14.346;2024-01-15T03:04:19;17.77;;;7.85;;
29568;SDS011;16501;51.462;14.346;2024-01-15T03:06:45;14.43;;;7.28;;
29568;SDS011;16501;51.462;14.346;2024-01-15T03:09:10;13.93;;;7.18;;
29568;SDS011;16501;51.462;14.346;2024-01-15T03:11:38;13.63;;;6.35;;
29568;SDS011;16501;51.462;14.346;2024-01-15T03:14:04;11.15;;;6.40;;
29568;SDS011;16501;51.462;14.346;2024-01-15T03:16:29;14.75;;;7.72;;
29568;SDS011;16501;51.462;14.346;2024-01-15T03:18:54;15.98;;;7.80;;
29568;SDS011;16501;51.462;14.346;2024-01-15T03:21:20;15.48;;;7.88;;
29568;SDS011;16501;51.462;14.346;2024-01-15T03:23:45;14.98;;;7.00;;
29568;SDS011;16501;51.462;14.346;2024-01-15T03:26:10;16.10;;;7.82;;
29568;SDS011;16501;51.462;14.346;2024-01-15T03:28:36;18.45;;;7.10;;
29568;SDS011;16501;51.462;14.346;2024-01-15T03:31:01;15.20;;;7.90;;
29568;SDS011;16501;51.462;14.346;2024-01-15T03:33:27;12.52;;;7.00;;
29568;SDS011;16501;51.462;14.346;2024-01-15T03:35:52;18.63;;;8.30;;
29568;SDS011;16501;51.462;14.346;2024-01-15T03:38:17;12.48;;;7.15;;
29568;SDS011;16501;51.462;14.346;2024-01-15T03:40:43;14.13;;;7.47;;
29568;SDS011;16501;51.462;14.346;2024-01-15T03:43:08;15.15;;;7.32;;
29568;SDS011;16501;51.462;14.346;2024-01-15T03:45:33;13.40;;;7.82;;
29568;SDS011;16501;51.462;14.346;2024-01-15T03:47:58;15.43;;;8.55;;
29568;SDS011;16501;51.462;14.346;2024-01-15T03:50:24;13.77;;;7.53;;
29568;SDS011;16501;51.462;14.346;2024-01-15T03:52:49;14.57;;;8.05;;
29568;SDS011;16501;51.462;14.346;2024-01-15T03:55:14;20.83;;;7.72;;
29568;SDS011;16501;51.462;14.346;2024-01-15T03:57:40;18.40;;;8.30;;
29568;SDS011;16501;51.462;14.346;2024-01-15T04:00:05;14.65;;;6.80;;
29568;SDS011;16501;51.462;14.346;2024-01-15T04:02:32;14.57;;;8.38;;
29568;SDS011;16501;51.462;14.346;2024-01-15T04:04:57;14.90;;;7.38;;
29568;SDS011;16501;51.462;14.346;2024-01-15T04:07:22;16.55;;;7.60;;
29568;SDS011;16501;51.462;14.346;2024-01-15T04:09:47;13.38;;;6.75;;
29568;SDS011;16501;51.462;14.346;2024-01-15T04:12:13;11.80;;;6.47;;
29568;SDS011;16501;51.462;14.346;2024-01-15T04:14:38;12.27;;;6.80;;
29568;SDS011;16501;51.462;14.346;2024-01-15T04:17:03;14.05;;;6.95;;
29568;SDS011;16501;51.462;14.346;2024-01-15T04:19:29;15.25;;;6.90;;
29568;SDS011;16501;51.462;14.346;2024-01-15T04:21:54;13.95;;;6.80;;
29568;SDS011;16501;51.462;14.346;2024-01-15T04:24:19;13.13;;;6.57;;
29568;SDS011;16501;51.462;14.346;2024-01-15T04:26:45;14.88;;;6.68;;
29568;SDS011;16501;51.462;14.346;2024-01-15T04:29:10;11.75;;;6.00;;
29568;SDS011;16501;51.462;14.346;2024-01-15T04:31:35;10.90;;;6.10;;
29568;SDS011;16501;51.462;14.346;2024-01-15T04:34:01;10.70;;;6.75;;
29568;SDS011;16501;51.462;14.346;2024-01-15T04:36:26;13.25;;;6.70;;
29568;SDS011;16501;51.462;14.346;2024-01-15T04:38:51;14.15;;;7.50;;
29568;SDS011;16501;51.462;14.346;2024-01-15T04:41:16;12.82;;;6.75;;
29568;SDS011;16501;51.462;14.346;2024-01-15T04:43:42;13.05;;;5.97;;
29568;SDS011;16501;51.462;14.346;2024-01-15T04:46:07;13.70;;;7.28;;
29568;SDS011;16501;51.462;14.346;2024-01-15T04:48:33;10.95;;;6.18;;
29568;SDS011;16501;51.462;14.346;2024-01-15T04:50:58;10.55;;;6.35;;
29568;SDS011;16501;51.462;14.346;2024-01-15T04:53:23;10.85;;;6.20;;
29568;SDS011;16501;51.462;14.346;2024-01-15T04:55:48;9.88;;;5.97;;
29568;SDS011;16501;51.462;14.346;2024-01-15T04:58:14;11.55;;;6.82;;
29568;SDS011;16501;51.462;14.346;2024-01-15T05:00:39;9.60;;;5.80;;
29568;SDS011;16501;51.462;14.346;2024-01-15T05:03:04;12.48;;;6.75;;
29568;SDS011;16501;51.462;14.346;2024-01-15T05:05:30;12.75;;;6.13;;
29568;SDS011;16501;51.462;14.346;2024-01-15T05:07:55;13.93;;;7.18;;
29568;SDS011;16501;51.462;14.346;2024-01-15T05:10:20;11.18;;;6.32;;
29568;SDS011;16501;51.462;14.346;2024-01-15T05:12:45;14.85;;;7.40;;
29568;SDS011;16501;51.462;14.346;2024-01-15T05:15:11;13.57;;;6.85;;
29568;SDS011;16501;51.462;14.346;2024-01-15T05:17:36;16.17;;;7.18;;
29568;SDS011;16501;51.462;14.346;2024-01-15T05:20:01;13.77;;;6.47;;
29568;SDS011;16501;51.462;14.346;2024-01-15T05:22:28;13.02;;;6.93;;
29568;SDS011;16501;51.462;14.346;2024-01-15T05:24:53;16.02;;;7.40;;
29568;SDS011;16501;51.462;14.346;2024-01-15T05:27:18;14.45;;;7.00;;
29568;SDS011;16501;51.462;14.346;2024-01-15T05:29:44;13.38;;;7.30;;
29568;SDS011;16501;51.462;14.346;2024-01-15T05:32:09;12.40;;;6.88;;
29568;SDS011;16501;51.462;14.346;2024-01-15T05:34:34;13.77;;;7.43;;
29568;SDS011;16501;51.462;14.346;2024-01-15T05:37:00;13.02;;;6.85;;
29568;SDS011;16501;51.462;14.346;2024-01-15T05:39:25;13.90;;;7.28;;
29568;SDS011;16501;51.462;14.346;2024-01-15T05:41:51;11.55;;;6.82;;
29568;SDS011;16501;51.462;14.346;2024-01-15T05:44:16;12.80;;;6.32;;
29568;SDS011;16501;51.462;14.346;2024-01-15T05:46:41;11.10;;;5.97;;
29568;SDS011;16501;51.462;14.346;2024-01-15T05:49:07;13.23;;;7.68;;
29568;SDS011;16501;51.462;14.346;2024-01-15T05:51:32;12.27;;;6.65;;
29568;SDS011;16501;51.462;14.346;2024-01-15T05:53:57;15.05;;;7.07;;
29568;SDS011;16501;51.462;14.346;2024-01-15T05:56:22;11.43;;;6.43;;
29568;SDS011;16501;51.462;14.346;2024-01-15T05:58:49;13.40;;;6.70;;
29568;SDS011;16501;51.462;14.346;2024-01-15T06:01:14;15.10;;;6.60;;
29568;SDS011;16501;51.462;14.346;2024-01-15T06:03:39;13.70;;;6.45;;
29568;SDS011;16501;51.462;14.346;2024-01-15T06:06:05;13.70;;;6.53;;
29568;SDS011;16501;51.462;14.346;2024-01-15T06:08:30;14.50;;;6.93;;
29568;SDS011;16501;51.462;14.346;2024-01-15T06:10:56;17.00;;;8.60;;
29568;SDS011;16501;51.462;14.346;2024-01-15T06:13:22;16.73;;;8.65;;
29568;SDS011;16501;51.462;14.346;2024-01-15T06:15:47;28.00;;;10.82;;
29568;SDS011;16501;51.462;14.346;2024-01-15T06:18:13;13.70;;;8.65;;
29568;SDS011;16501;51.462;14.346;2024-01-15T06:20:39;39.30;;;16.00;;
29568;SDS011;16501;51.462;14.346;2024-01-15T06:23:04;31.92;;;13.30;;
29568;SDS011;16501;51.462;14.346;2024-01-15T06:25:29;37.65;;;16.60;;
29568;SDS011;16501;51.462;14.346;2024-01-15T06:27:54;24.27;;;11.27;;
29568;SDS011;16501;51.462;14.346;2024-01-15T06:30:20;14.63;;;8.40;;
29568;SDS011;16501;51.462;14.346;2024-01-15T06:32:45;20.50;;;9.25;;
29568;SDS011;16501;51.462;14.346;2024-01-15T06:35:10;18.42;;;8.38;;
29568;SDS011;16501;51.462;14.346;2024-01-15T06:37:36;18.73;;;9.57;;
29568;SDS011;16501;51.462;14.346;2024-01-15T06:40:02;16.00;;;7.82;;
29568;SDS011;16501;51.462;14.346;2024-01-15T06:42:28;18.75;;;8.73;;
29568;SDS011;16501;51.462;14.346;2024-01-15T06:44:53;20.95;;;10.10;;
29568;SDS011;16501;51.462;14.346;2024-01-15T06:47:18;14.43;;;8.13;;
29568;SDS011;16501;51.462;14.346;2024-01-15T06:49:44;18.83;;;7.22;;
29568;SDS011;16501;51.462;14.346;2024-01-15T06:52:09;13.05;;;6.13;;
29568;SDS011;16501;51.462;14.346;2024-01-15T06:54:34;12.02;;;6.53;;
29568;SDS011;16501;51.462;14.346;2024-01-15T06:57:00;17.25;;;6.63;;
29568;SDS011;16501;51.462;14.346;2024-01-15T06:59:25;15.85;;;6.80;;
29568;SDS011;16501;51.462;14.346;2024-01-15T07:01:50;21.27;;;7.80;;
29568;SDS011;16501;51.462;14.346;2024-01-15T07:04:15;14.07;;;7.22;;
29568;SDS011;16501;51.462;14.346;2024-01-15T07:06:41;14.40;;;7.65;;
29568;SDS011;16501;51.462;14.346;2024-01-15T07:09:06;13.60;;;7.82;;
29568;SDS011;16501;51.462;14.346;2024-01-15T07:11:32;19.17;;;8.75;;
29568;SDS011;16501;51.462;14.346;2024-01-15T07:13:57;15.30;;;6.45;;
29568;SDS011;16501;51.462;14.346;2024-01-15T07:16:32;16.13;;;8.88;;
29568;SDS011;16501;51.462;14.346;2024-01-15T07:18:58;17.17;;;7.57;;
29568;SDS011;16501;51.462;14.346;2024-01-15T07:21:23;14.57;;;6.70;;
29568;SDS011;16501;51.462;14.346;2024-01-15T07:23:48;18.25;;;9.18;;
29568;SDS011;16501;51.462;14.346;2024-01-15T07:26:14;16.65;;;7.63;;
29568;SDS011;16501;51.462;14.346;2024-01-15T07:28:39;11.27;;;6.20;;
29568;SDS011;16501;51.462;14.346;2024-01-15T07:31:05;22.50;;;7.95;;
29568;SDS011;16501;51.462;14.346;2024-01-15T07:33:31;13.20;;;6.22;;
29568;SDS011;16501;51.462;14.346;2024-01-15T07:35:56;13.40;;;6.65;;
29568;SDS011;16501;51.462;14.346;2024-01-15T07:38:22;16.60;;;7.38;;
29568;SDS011;16501;51.462;14.346;2024-01-15T07:40:47;15.38;;;7.50;;
29568;SDS011;16501;51.462;14.346;2024-01-15T07:43:14;13.38;;;6.90;;
29568;SDS011;16501;51.462;14.346;2024-01-15T07:45:39;14.77;;;6.22;;
29568;SDS011;16501;51.462;14.346;2024-01-15T07:48:05;21.75;;;7.60;;
29568;SDS011;16501;51.462;14.346;2024-01-15T07:50:30;19.17;;;8.35;;
29568;SDS011;16501;51.462;14.346;2024-01-15T07:52:56;19.40;;;8.85;;
29568;SDS011;16501;51.462;14.346;2024-01-15T07:55:21;17.00;;;7.05;;
29568;SDS011;16501;51.462;14.346;2024-01-15T07:57:46;20.50;;;8.85;;
29568;SDS011;16501;51.462;14.346;2024-01-15T08:00:11;18.65;;;9.52;;
29568;SDS011;16501;51.462;14.346;2024-01-15T08:02:37;14.60;;;6.78;;
29568;SDS011;16501;51.462;14.346;2024-01-15T08:05:02;13.65;;;6.40;;
29568;SDS011;16501;51.462;14.346;2024-01-15T08:07:27;12.70;;;6.70;;
29568;SDS011;16501;51.462;14.346;2024-01-15T08:09:56;20.10;;;8.35;;
29568;SDS011;16501;51.462;14.346;2024-01-15T08:12:21;16.33;;;8.75;;
29568;SDS011;16501;51.462;14.346;2024-01-15T08:14:47;14.82;;;7.85;;
29568;SDS011;16501;51.462;14.346;2024-01-15T08:17:12;11.73;;;6.38;;
29568;SDS011;16501;51.462;14.346;2024-01-15T08:19:38;9.57;;;5.70;;
29568;SDS011;16501;51.462;14.346;2024-01-15T08:22:06;11.05;;;5.43;;
29568;SDS011;16501;51.462;14.346;2024-01-15T08:24:31;15.25;;;5.30;;
29568;SDS011;16501;51.462;14.346;2024-01-15T08:26:56;12.27;;;4.65;;
29568;SDS011;16501;51.462;14.346;2024-01-15T08:29:21;13.18;;;5.82;;
29568;SDS011;16501;51.462;14.346;2024-01-15T08:31:48;11.10;;;5.97;;
29568;SDS011;16501;51.462;14.346;2024-01-15T08:34:13;12.02;;;5.93;;
29568;SDS011;16501;51.462;14.346;2024-01-15T08:36:38;11.95;;;5.47;;
29568;SDS011;16501;51.462;14.346;2024-01-15T08:39:05;12.63;;;5.88;;
29568;SDS011;16501;51.462;14.346;2024-01-15T08:41:32;17.98;;;6.38;;
29568;SDS011;16501;51.462;14.346;2024-01-15T08:43:57;12.43;;;5.63;;
29568;SDS011;16501;51.462;14.346;2024-01-15T08:46:23;9.32;;;4.28;;
29568;SDS011;16501;51.462;14.346;2024-01-15T08:48:49;10.30;;;4.80;;
29568;SDS011;16501;51.462;14.346;2024-01-15T08:51:14;12.82;;;4.53;;
29568;SDS011;16501;51.462;14.346;2024-01-15T08:53:39;15.35;;;5.53;;
29568;SDS011;16501;51.462;14.346;2024-01-15T08:56:05;16.77;;;5.60;;
29568;SDS011;16501;51.462;14.346;2024-01-15T08:58:31;10.10;;;5.07;;
29568;SDS011;16501;51.462;14.346;2024-01-15T09:00:56;13.48;;;4.35;;
29568;SDS011;16501;51.462;14.346;2024-01-15T09:03:21;10.98;;;5.13;;
29568;SDS011;16501;51.462;14.346;2024-01-15T09:05:46;9.85;;;5.35;;
29568;SDS011;16501;51.462;14.346;2024-01-15T09:08:13;10.52;;;5.00;;
29568;SDS011;16501;51.462;14.346;2024-01-15T09:10:38;17.90;;;5.47;;
29568;SDS011;16501;51.462;14.346;2024-01-15T09:13:04;10.90;;;5.05;;
29568;SDS011;16501;51.462;14.346;2024-01-15T09:15:29;11.05;;;7.28;;
29568;SDS011;16501;51.462;14.346;2024-01-15T09:17:54;9.00;;;5.13;;
29568;SDS011;16501;51.462;14.346;2024-01-15T09:20:20;9.65;;;4.85;;
29568;SDS011;16501;51.462;14.346;2024-01-15T09:22:45;12.15;;;6.03;;
29568;SDS011;16501;51.462;14.346;2024-01-15T09:25:11;15.95;;;6.93;;
29568;SDS011;16501;51.462;14.346;2024-01-15T09:27:36;19.98;;;9.57;;
29568;SDS011;16501;51.462;14.346;2024-01-15T09:30:02;15.02;;;6.85;;
29568;SDS011;16501;51.462;14.346;2024-01-15T09:32:28;13.50;;;6.75;;
29568;SDS011;16501;51.462;14.346;2024-01-15T09:34:53;16.63;;;6.70;;
29568;SDS011;16501;51.462;14.346;2024-01-15T09:37:18;15.23;;;7.72;;
29568;SDS011;16501;51.462;14.346;2024-01-15T09:39:43;14.82;;;7.10;;
29568;SDS011;16501;51.462;14.346;2024-01-15T09:42:09;13.55;;;7.22;;
29568;SDS011;16501;51.462;14.346;2024-01-15T09:44:35;12.07;;;6.55;;
29568;SDS011;16501;51.462;14.346;2024-01-15T09:47:01;11.55;;;4.88;;
29568;SDS011;16501;51.462;14.346;2024-01-15T09:49:27;12.65;;;5.40;;
29568;SDS011;16501;51.462;14.346;2024-01-15T09:51:53;9.70;;;5.22;;
29568;SDS011;16501;51.462;14.346;2024-01-15T09:54:19;10.68;;;4.95;;
29568;SDS011;16501;51.462;14.346;2024-01-15T09:56:45;9.52;;;4.40;;
29568;SDS011;16501;51.462;14.346;2024-01-15T09:59:17;9.30;;;5.05;;
29568;SDS011;16501;51.462;14.346;2024-01-15T10:01:43;13.23;;;5.05;;
29568;SDS011;16501;51.462;14.346;2024-01-15T10:04:13;10.30;;;5.47;;
29568;SDS011;16501;51.462;14.346;2024-01-15T10:06:39;9.65;;;5.35;;
29568;SDS011;16501;51.462;14.346;2024-01-15T10:09:06;10.27;;;5.25;;
29568;SDS011;16501;51.462;14.346;2024-01-15T10:11:33;9.65;;;4.80;;
29568;SDS011;16501;51.462;14.346;2024-01-15T10:13:58;10.00;;;5.90;;
29568;SDS011;16501;51.462;14.346;2024-01-15T10:16:23;11.80;;;5.68;;
29568;SDS011;16501;51.462;14.346;2024-01-15T10:18:49;10.40;;;5.25;;
29568;SDS011;16501;51.462;14.346;2024-01-15T10:21:14;8.38;;;4.90;;
29568;SDS011;16501;51.462;14.346;2024-01-15T10:23:40;12.77;;;5.25;;
29568;SDS011;16501;51.462;14.346;2024-01-15T10:26:06;13.52;;;5.40;;
29568;SDS011;16501;51.462;14.346;2024-01-15T10:28:31;10.52;;;4.50;;
29568;SDS011;16501;51.462;14.346;2024-01-15T10:30:58;9.95;;;4.93;;
29568;SDS011;16501;51.462;14.346;2024-01-15T10:33:24;16.88;;;7.38;;
29568;SDS011;16501;51.462;14.346;2024-01-15T10:35:53;14.98;;;6.95;;
29568;SDS011;16501;51.462;14.346;2024-01-15T10:38:20;12.18;;;5.38;;
29568;SDS011;16501;51.462;14.346;2024-01-15T10:40:47;17.45;;;6.97;;
29568;SDS011;16501;51.462;14.346;2024-01-15T10:43:13;12.32;;;5.75;;
29568;SDS011;16501;51.462;14.346;2024-01-15T10:45:38;11.80;;;6.72;;
29568;SDS011;16501;51.462;14.346;2024-01-15T10:48:03;13.90;;;6.97;;
29568;SDS011;16501;51.462;14.346;2024-01-15T10:50:29;10.07;;;5.65;;
29568;SDS011;16501;51.462;14.346;2024-01-15T10:52:56;9.18;;;5.35;;
29568;SDS011;16501;51.462;14.346;2024-01-15T10:55:23;11.95;;;6.90;;
29568;SDS011;16501;51.462;14.346;2024-01-15T10:57:49;13.85;;;5.05;;
29568;SDS011;16501;51.462;14.346;2024-01-15T11:00:14;10.38;;;4.40;;
29568;SDS011;16501;51.462;14.346;2024-01-15T11:02:40;14.73;;;5.85;;
29568;SDS011;16501;51.462;14.346;2024-01-15T11:05:07;15.73;;;5.43;;
29568;SDS011;16501;51.462;14.346;2024-01-15T11:07:32;14.02;;;6.18;;
29568;SDS011;16501;51.462;14.346;2024-01-15T11:09:57;12.88;;;5.10;;
29568;SDS011;16501;51.462;14.346;2024-01-15T11:12:24;9.65;;;4.97;;
29568;SDS011;16501;51.462;14.346;2024-01-15T11:14:49;9.18;;;4.85;;
29568;SDS011;16501;51.462;14.346;2024-01-15T11:17:26;13.25;;;5.60;;
29568;SDS011;16501;51.462;14.346;2024-01-15T11:19:52;11.18;;;5.80;;
29568;SDS011;16501;51.462;14.346;2024-01-15T11:24:54;10.93;;;5.13;;
29568;SDS011;16501;51.462;14.346;2024-01-15T11:27:39;10.77;;;5.90;;
29568;SDS011;16501;51.462;14.346;2024-01-15T11:30:11;14.85;;;7.03;;
29568;SDS011;16501;51.462;14.346;2024-01-15T11:32:37;12.95;;;6.45;;
29568;SDS011;16501;51.462;14.346;2024-01-15T11:35:06;13.25;;;7.32;;
29568;SDS011;16501;51.462;14.346;2024-01-15T11:40:20;11.93;;;4.80;;
29568;SDS011;16501;51.462;14.346;2024-01-15T11:42:47;10.93;;;5.38;;
29568;SDS011;16501;51.462;14.346;2024-01-15T11:45:18;18.48;;;7.78;;
29568;SDS011;16501;51.462;14.346;2024-01-15T11:50:18;14.43;;;5.40;;
29568;SDS011;16501;51.462;14.346;2024-01-15T11:52:44;7.63;;;4.25;;
29568;SDS011;16501;51.462;14.346;2024-01-15T11:55:28;11.63;;;5.60;;
29568;SDS011;16501;51.462;14.346;2024-01-15T11:57:58;9.35;;;4.82;;
29568;SDS011;16501;51.462;14.346;2024-01-15T12:00:25;10.60;;;4.53;;
29568;SDS011;16501;51.462;14.346;2024-01-15T12:02:51;9.10;;;5.05;;
29568;SDS011;16501;51.462;14.346;2024-01-15T12:05:17;7.13;;;4.13;;
29568;SDS011;16501;51.462;14.346;2024-01-15T12:07:45;7.57;;;4.07;;
29568;SDS011;16501;51.462;14.346;2024-01-15T12:10:16;14.57;;;4.93;;
29568;SDS011;16501;51.462;14.346;2024-01-15T12:12:54;10.65;;;3.17;;
29568;SDS011;16501;51.462;14.346;2024-01-15T12:15:37;6.95;;;3.28;;
29568;SDS011;16501;51.462;14.346;2024-01-15T12:18:06;6.00;;;2.95;;
29568;SDS011;16501;51.462;14.346;2024-01-15T12:20:46;7.35;;;4.13;;
29568;SDS011;16501;51.462;14.346;2024-01-15T12:23:14;9.57;;;3.95;;
29568;SDS011;16501;51.462;14.346;2024-01-15T12:25:40;9.10;;;5.00;;
29568;SDS011;16501;51.462;14.346;2024-01-15T12:28:06;6.40;;;3.22;;
29568;SDS011;16501;51.462;14.346;2024-01-15T12:30:32;8.18;;;3.25;;
29568;SDS011;16501;51.462;14.346;2024-01-15T12:33:05;6.63;;;3.58;;
29568;SDS011;16501;51.462;14.346;2024-01-15T12:35:33;7.25;;;2.95;;
29568;SDS011;16501;51.462;14.346;2024-01-15T12:37:59;10.38;;;3.50;;
29568;SDS011;16501;51.462;14.346;2024-01-15T12:40:27;6.00;;;2.97;;
29568;SDS011;16501;51.462;14.346;2024-01-15T12:42:52;8.52;;;2.97;;
29568;SDS011;16501;51.462;14.346;2024-01-15T12:45:18;7.63;;;4.28;;
29568;SDS011;16501;51.462;14.346;2024-01-15T12:47:43;5.00;;;2.53;;
29568;SDS011;16501;51.462;14.346;2024-01-15T12:50:09;7.80;;;2.97;;
29568;SDS011;16501;51.462;14.346;2024-01-15T12:52:35;6.90;;;4.10;;
29568;SDS011;16501;51.462;14.346;2024-01-15T12:55:03;9.48;;;4.00;;
29568;SDS011;16501;51.462;14.346;2024-01-15T12:57:32;8.93;;;3.95;;
29568;SDS011;16501;51.462;14.346;2024-01-15T12:59:59;9.98;;;4.60;;
29568;SDS011;16501;51.462;14.346;2024-01-15T13:02:24;8.02;;;5.30;;
29568;SDS011;16501;51.462;14.346;2024-01-15T13:04:49;7.45;;;3.75;;
29568;SDS011;16501;51.462;14.346;2024-01-15T13:07:15;6.13;;;3.40;;
29568;SDS011;16501;51.462;14.346;2024-01-15T13:09:40;7.55;;;4.00;;
29568;SDS011;16501;51.462;14.346;2024-01-15T13:12:05;9.63;;;4.25;;
29568;SDS011;16501;51.462;14.346;2024-01-15T13:14:31;8.25;;;2.95;;
29568;SDS011;16501;51.462;14.346;2024-01-15T13:16:56;8.07;;;3.00;;
29568;SDS011;16501;51.462;14.346;2024-01-15T13:19:22;9.27;;;3.47;;
29568;SDS011;16501;51.462;14.346;2024-01-15T13:21:47;7.15;;;4.13;;
29568;SDS011;16501;51.462;14.346;2024-01-15T13:24:13;11.60;;;4.05;;
29568;SDS011;16501;51.462;14.346;2024-01-15T13:26:39;6.72;;;3.80;;
29568;SDS011;16501;51.462;14.346;2024-01-15T13:29:05;11.88;;;4.72;;
29568;SDS011;16501;51.462;14.346;2024-01-15T13:31:31;8.68;;;4.00;;
29568;SDS011;16501;51.462;14.346;2024-01-15T13:33:57;11.88;;;4.45;;
29568;SDS011;16501;51.462;14.346;2024-01-15T13:36:23;12.35;;;5.05;;
29568;SDS011;16501;51.462;14.346;2024-01-15T13:38:49;10.68;;;4.80;;
29568;SDS011;16501;51.462;14.346;2024-01-15T13:41:15;6.60;;;4.28;;
29568;SDS011;16501;51.462;14.346;2024-01-15T13:43:40;7.15;;;4.13;;
29568;SDS011;16501;51.462;14.346;2024-01-15T13:46:05;11.52;;;4.28;;
29568;SDS011;16501;51.462;14.346;2024-01-15T13:48:31;7.18;;;3.78;;
29568;SDS011;16501;51.462;14.346;2024-01-15T13:50:59;8.43;;;4.15;;
29568;SDS011;16501;51.462;14.346;2024-01-15T13:53:24;9.20;;;4.05;;
29568;SDS011;16501;51.462;14.346;2024-01-15T13:55:51;8.25;;;4.25;;
29568;SDS011;16501;51.462;14.346;2024-01-15T13:58:16;9.27;;;4.93;;
29568;SDS011;16501;51.462;14.346;2024-01-15T14:00:43;9.77;;;3.95;;
29568;SDS011;16501;51.462;14.346;2024-01-15T14:03:08;10.90;;;4.55;;
29568;SDS011;16501;51.462;14.346;2024-01-15T14:05:33;9.38;;;4.15;;
29568;SDS011;16501;51.462;14.346;2024-01-15T14:07:59;8.07;;;3.95;;
29568;SDS011;16501;51.462;14.346;2024-01-15T14:10:24;7.60;;;3.90;;
29568;SDS011;16501;51.462;14.346;2024-01-15T14:12:49;11.50;;;4.20;;
29568;SDS011;16501;51.462;14.346;2024-01-15T14:15:14;6.50;;;3.75;;
29568;SDS011;16501;51.462;14.346;2024-01-15T14:17:40;9.07;;;3.85;;
29568;SDS011;16501;51.462;14.346;2024-01-15T14:20:05;11.48;;;3.47;;
29568;SDS011;16501;51.462;14.346;2024-01-15T14:22:31;6.95;;;3.25;;
29568;SDS011;16501;51.462;14.346;2024-01-15T14:24:57;7.97;;;3.67;;
29568;SDS011;16501;51.462;14.346;2024-01-15T14:27:22;6.47;;;3.28;;